createdAt,value
2016-10-15T00:00:37.032Z,17.97
2016-10-15T00:01:36.733Z,17.94
2016-10-15T00:02:36.752Z,17.94
2016-10-15T00:03:37.094Z,17.98
2016-10-15T00:04:37.118Z,17.9
2016-10-15T00:05:37.469Z,17.94
2016-10-15T00:06:36.849Z,17.9
2016-10-15T00:07:37.186Z,17.94
2016-10-15T00:08:36.896Z,17.87
2016-10-15T00:09:36.918Z,17.9
2016-10-15T00:10:36.950Z,18
2016-10-15T00:11:37.592Z,17.98
2016-10-15T00:12:37.006Z,17.95
2016-10-15T00:13:37.019Z,18.01
2016-10-15T00:14:37.066Z,17.95
2016-10-15T00:15:37.370Z,18.01
2016-10-15T00:16:37.400Z,18.01
2016-10-15T00:17:37.417Z,17.97
2016-10-15T00:18:37.440Z,18.01
2016-10-15T00:19:37.781Z,18.05
2016-10-15T00:20:37.805Z,18.01
2016-10-15T00:21:37.543Z,18.11
2016-10-15T00:22:37.535Z,18.05
2016-10-15T00:23:37.555Z,18.1
2016-10-15T00:24:37.587Z,18.23
2016-10-15T00:25:37.601Z,18.13
2016-10-15T00:26:37.625Z,18.19
2016-10-15T00:27:37.649Z,18.16
2016-10-15T00:28:37.993Z,18.18
2016-10-15T00:29:37.695Z,18.16
2016-10-15T00:30:37.400Z,18.11
2016-10-15T00:31:37.448Z,18.23
2016-10-15T00:32:37.763Z,18.19
2016-10-15T00:33:37.470Z,18.26
2016-10-15T00:34:37.496Z,18.2
2016-10-15T00:35:37.516Z,18.2
2016-10-15T00:36:37.553Z,18.01
2016-10-15T00:37:37.876Z,18.01
2016-10-15T00:38:37.589Z,18.01
2016-10-15T00:39:37.926Z,18
2016-10-15T00:40:37.958Z,17.95
2016-10-15T00:41:37.657Z,17.97
2016-10-15T00:42:37.994Z,17.9
2016-10-15T00:43:38.332Z,17.94
2016-10-15T00:44:38.048Z,17.97
2016-10-15T00:45:38.064Z,17.85
2016-10-15T00:46:38.081Z,17.8
2016-10-15T00:47:37.795Z,17.87
2016-10-15T00:48:38.131Z,17.87
2016-10-15T00:49:38.469Z,17.8
2016-10-15T00:50:38.180Z,17.79
2016-10-15T00:51:38.519Z,17.87
2016-10-15T00:52:38.244Z,17.85
2016-10-15T00:53:38.561Z,17.83
2016-10-15T00:54:38.584Z,17.86
2016-10-15T00:55:38.299Z,17.83
2016-10-15T00:56:38.320Z,17.86
2016-10-15T00:57:38.025Z,17.74
2016-10-15T00:58:38.681Z,17.74
2016-10-15T00:59:38.492Z,17.68
2016-10-15T01:00:38.092Z,17.72
2016-10-15T01:01:38.122Z,17.7
2016-10-15T01:02:38.158Z,17.68
2016-10-15T01:03:38.792Z,17.71
2016-10-15T01:04:38.824Z,17.76
2016-10-15T01:05:38.523Z,17.76
2016-10-15T01:06:38.543Z,17.78
2016-10-15T01:07:38.577Z,17.79
2016-10-15T01:08:38.274Z,17.89
2016-10-15T01:09:38.299Z,17.78
2016-10-15T01:10:38.635Z,17.7
2016-10-15T01:11:38.340Z,17.74
2016-10-15T01:12:38.997Z,17.72
2016-10-15T01:13:38.705Z,17.72
2016-10-15T01:14:38.734Z,17.74
2016-10-15T01:15:39.066Z,17.71
2016-10-15T01:16:38.781Z,17.65
2016-10-15T01:17:38.495Z,17.72
2016-10-15T01:18:38.929Z,17.71
2016-10-15T01:19:38.843Z,17.76
2016-10-15T01:20:38.551Z,17.72
2016-10-15T01:21:38.907Z,17.8
2016-10-15T01:22:38.913Z,17.78
2016-10-15T01:23:38.950Z,17.76
2016-10-15T01:24:38.655Z,17.71
2016-10-15T01:25:38.664Z,17.71
2016-10-15T01:26:38.688Z,17.71
2016-10-15T01:27:39.031Z,17.71
2016-10-15T01:28:39.047Z,17.76
2016-10-15T01:29:39.386Z,17.78
2016-10-15T01:30:38.775Z,17.68
2016-10-15T01:31:38.801Z,17.71
2016-10-15T01:32:39.139Z,17.64
2016-10-15T01:33:38.868Z,17.65
2016-10-15T01:34:39.182Z,17.74
2016-10-15T01:35:38.887Z,17.7
2016-10-15T01:36:39.229Z,17.78
2016-10-15T01:37:39.247Z,17.64
2016-10-15T01:38:39.287Z,17.7
2016-10-15T01:39:39.614Z,17.71
2016-10-15T01:40:39.319Z,17.63
2016-10-15T01:41:39.344Z,17.68
2016-10-15T01:42:39.695Z,17.59
2016-10-15T01:43:39.703Z,17.49
2016-10-15T01:44:39.096Z,17.45
2016-10-15T01:45:39.440Z,17.52
2016-10-15T01:46:39.144Z,17.56
2016-10-15T01:47:39.479Z,17.52
2016-10-15T01:48:39.501Z,17.49
2016-10-15T01:49:39.526Z,17.48
2016-10-15T01:50:39.549Z,17.46
2016-10-15T01:51:39.569Z,17.49
2016-10-15T01:52:39.590Z,17.48
2016-10-15T01:53:39.615Z,17.51
2016-10-15T01:54:39.639Z,17.48
2016-10-15T01:55:39.983Z,17.49
2016-10-15T01:56:39.370Z,17.46
2016-10-15T01:57:39.718Z,17.48
2016-10-15T01:58:39.416Z,17.45
2016-10-15T01:59:39.431Z,17.46
2016-10-15T02:00:40.094Z,17.46
2016-10-15T02:01:39.484Z,17.38
2016-10-15T02:02:39.512Z,17.38
2016-10-15T02:03:39.847Z,17.48
2016-10-15T02:04:39.549Z,17.41
2016-10-15T02:05:39.887Z,17.33
2016-10-15T02:06:39.910Z,17.49
2016-10-15T02:07:39.940Z,17.33
2016-10-15T02:08:40.283Z,17.39
2016-10-15T02:09:39.672Z,17.38
2016-10-15T02:10:39.993Z,17.34
2016-10-15T02:11:39.707Z,17.38
2016-10-15T02:12:39.726Z,17.34
2016-10-15T02:13:40.066Z,17.3
2016-10-15T02:14:39.772Z,17.23
2016-10-15T02:15:40.114Z,17.24
2016-10-15T02:16:40.134Z,17.29
2016-10-15T02:17:40.158Z,17.22
2016-10-15T02:18:39.874Z,17.2
2016-10-15T02:19:40.203Z,17.15
2016-10-15T02:20:40.552Z,17.09
2016-10-15T02:21:40.249Z,17.11
2016-10-15T02:22:39.955Z,17.22
2016-10-15T02:23:40.294Z,17.14
2016-10-15T02:24:40.517Z,17.11
2016-10-15T02:25:40.650Z,17.11
2016-10-15T02:26:40.044Z,17.14
2016-10-15T02:27:40.077Z,17.16
2016-10-15T02:28:40.404Z,17.11
2016-10-15T02:29:40.110Z,17.2
2016-10-15T02:30:40.764Z,17.23
2016-10-15T02:31:40.472Z,17.22
2016-10-15T02:32:40.495Z,17.14
2016-10-15T02:33:40.832Z,17.15
2016-10-15T02:34:40.534Z,17.14
2016-10-15T02:35:40.246Z,17.12
2016-10-15T02:36:40.591Z,17.22
2016-10-15T02:37:40.290Z,17.09
2016-10-15T02:38:40.630Z,17.08
2016-10-15T02:39:40.340Z,16.99
2016-10-15T02:40:40.361Z,17.01
2016-10-15T02:41:40.376Z,16.91
2016-10-15T02:42:41.033Z,16.9
2016-10-15T02:43:40.738Z,16.91
2016-10-15T02:44:40.449Z,16.86
2016-10-15T02:45:40.787Z,16.79
2016-10-15T02:46:40.490Z,16.86
2016-10-15T02:47:40.510Z,16.76
2016-10-15T02:48:40.872Z,16.74
2016-10-15T02:49:41.187Z,16.74
2016-10-15T02:50:40.577Z,16.74
2016-10-15T02:51:40.607Z,16.66
2016-10-15T02:52:40.623Z,16.71
2016-10-15T02:53:40.957Z,16.64
2016-10-15T02:54:41.299Z,16.74
2016-10-15T02:55:41.008Z,16.72
2016-10-15T02:56:41.034Z,16.65
2016-10-15T02:57:41.046Z,16.64
2016-10-15T02:58:40.763Z,16.68
2016-10-15T02:59:41.092Z,16.72
2016-10-15T03:00:40.801Z,16.65
2016-10-15T03:01:41.138Z,16.66
2016-10-15T03:02:41.166Z,16.61
2016-10-15T03:03:41.178Z,16.58
2016-10-15T03:04:40.907Z,16.61
2016-10-15T03:05:41.224Z,16.72
2016-10-15T03:06:41.251Z,16.66
2016-10-15T03:07:40.953Z,16.65
2016-10-15T03:08:41.608Z,16.66
2016-10-15T03:09:41.316Z,16.56
2016-10-15T03:10:41.336Z,16.65
2016-10-15T03:11:41.686Z,16.61
2016-10-15T03:12:41.695Z,16.71
2016-10-15T03:13:41.737Z,16.53
2016-10-15T03:14:41.106Z,16.53
2016-10-15T03:15:41.449Z,16.57
2016-10-15T03:16:41.467Z,16.6
2016-10-15T03:17:41.491Z,16.56
2016-10-15T03:18:41.195Z,16.56
2016-10-15T03:19:41.850Z,16.64
2016-10-15T03:20:41.561Z,16.57
2016-10-15T03:21:41.262Z,16.54
2016-10-15T03:22:41.603Z,16.54
2016-10-15T03:23:41.944Z,16.51
2016-10-15T03:24:41.958Z,16.51
2016-10-15T03:25:41.359Z,16.56
2016-10-15T03:26:41.687Z,16.57
2016-10-15T03:27:41.711Z,16.5
2016-10-15T03:28:41.740Z,16.5
2016-10-15T03:29:42.068Z,16.53
2016-10-15T03:30:42.118Z,16.56
2016-10-15T03:31:41.811Z,16.56
2016-10-15T03:32:41.506Z,16.51
2016-10-15T03:33:41.842Z,16.51
2016-10-15T03:34:42.184Z,16.56
2016-10-15T03:35:41.576Z,16.54
2016-10-15T03:36:41.910Z,16.57
2016-10-15T03:37:41.616Z,16.57
2016-10-15T03:38:41.636Z,16.54
2016-10-15T03:39:41.980Z,16.54
2016-10-15T03:40:42.310Z,16.56
2016-10-15T03:41:42.015Z,16.53
2016-10-15T03:42:42.036Z,16.5
2016-10-15T03:43:41.747Z,16.54
2016-10-15T03:44:42.412Z,16.54
2016-10-15T03:45:42.108Z,16.58
2016-10-15T03:46:42.151Z,16.56
2016-10-15T03:47:41.834Z,16.38
2016-10-15T03:48:42.179Z,16.53
2016-10-15T03:49:42.207Z,16.6
2016-10-15T03:50:42.216Z,16.53
2016-10-15T03:51:42.233Z,16.53
2016-10-15T03:52:41.945Z,16.54
2016-10-15T03:53:42.277Z,16.51
2016-10-15T03:54:42.309Z,16.54
2016-10-15T03:55:42.643Z,16.54
2016-10-15T03:56:42.347Z,16.42
2016-10-15T03:57:42.367Z,16.41
2016-10-15T03:58:42.388Z,16.54
2016-10-15T03:59:42.418Z,16.39
2016-10-15T04:00:42.435Z,16.49
2016-10-15T04:01:42.456Z,16.54
2016-10-15T04:02:42.476Z,16.43
2016-10-15T04:03:42.497Z,16.53
2016-10-15T04:04:42.839Z,16.54
2016-10-15T04:05:42.543Z,16.56
2016-10-15T04:06:42.564Z,16.53
2016-10-15T04:07:42.285Z,16.54
2016-10-15T04:08:42.293Z,16.54
2016-10-15T04:09:42.650Z,16.56
2016-10-15T04:10:42.966Z,16.57
2016-10-15T04:11:42.675Z,16.54
2016-10-15T04:12:42.392Z,16.56
2016-10-15T04:13:43.032Z,16.53
2016-10-15T04:14:42.426Z,16.53
2016-10-15T04:15:43.077Z,16.53
2016-10-15T04:16:42.782Z,16.57
2016-10-15T04:17:42.807Z,16.54
2016-10-15T04:18:43.143Z,16.41
2016-10-15T04:19:42.848Z,16.47
2016-10-15T04:20:42.878Z,16.46
2016-10-15T04:21:43.207Z,16.46
2016-10-15T04:22:43.230Z,16.49
2016-10-15T04:23:42.940Z,16.41
2016-10-15T04:24:42.645Z,16.43
2016-10-15T04:25:43.296Z,16.49
2016-10-15T04:26:42.682Z,16.57
2016-10-15T04:27:43.023Z,16.54
2016-10-15T04:28:43.360Z,16.43
2016-10-15T04:29:43.383Z,16.56
2016-10-15T04:30:43.404Z,16.57
2016-10-15T04:31:42.797Z,16.53
2016-10-15T04:32:43.147Z,16.53
2016-10-15T04:33:43.151Z,16.5
2016-10-15T04:34:43.177Z,16.5
2016-10-15T04:35:43.206Z,16.42
2016-10-15T04:36:43.534Z,16.5
2016-10-15T04:37:43.239Z,16.5
2016-10-15T04:38:42.947Z,16.42
2016-10-15T04:39:42.970Z,16.41
2016-10-15T04:40:42.989Z,16.42
2016-10-15T04:41:43.326Z,16.42
2016-10-15T04:42:43.349Z,16.41
2016-10-15T04:43:43.372Z,16.41
2016-10-15T04:44:43.398Z,16.39
2016-10-15T04:45:43.125Z,16.38
2016-10-15T04:46:43.431Z,16.32
2016-10-15T04:47:43.456Z,16.36
2016-10-15T04:48:43.477Z,16.36
2016-10-15T04:49:43.502Z,16.35
2016-10-15T04:50:43.837Z,16.38
2016-10-15T04:51:43.863Z,16.42
2016-10-15T04:52:43.272Z,16.38
2016-10-15T04:53:43.589Z,16.42
2016-10-15T04:54:43.291Z,16.36
2016-10-15T04:55:43.319Z,16.33
2016-10-15T04:56:43.968Z,16.42
2016-10-15T04:57:43.672Z,16.38
2016-10-15T04:58:43.704Z,16.35
2016-10-15T04:59:43.402Z,16.41
2016-10-15T05:00:43.424Z,16.42
2016-10-15T05:01:43.445Z,16.41
2016-10-15T05:02:43.786Z,16.39
2016-10-15T05:03:43.491Z,16.41
2016-10-15T05:04:43.827Z,16.38
2016-10-15T05:05:44.166Z,16.42
2016-10-15T05:06:44.190Z,16.38
2016-10-15T05:07:43.896Z,16.42
2016-10-15T05:08:44.231Z,16.38
2016-10-15T05:09:44.255Z,16.41
2016-10-15T05:10:43.956Z,16.38
2016-10-15T05:11:43.979Z,16.32
2016-10-15T05:12:44.308Z,16.38
2016-10-15T05:13:44.345Z,16.43
2016-10-15T05:14:44.044Z,16.39
2016-10-15T05:15:44.084Z,16.41
2016-10-15T05:16:43.778Z,16.36
2016-10-15T05:17:44.424Z,16.36
2016-10-15T05:18:44.444Z,16.42
2016-10-15T05:19:44.465Z,16.42
2016-10-15T05:20:44.491Z,16.42
2016-10-15T05:21:43.886Z,16.46
2016-10-15T05:22:44.216Z,16.39
2016-10-15T05:23:44.238Z,16.41
2016-10-15T05:24:44.571Z,16.39
2016-10-15T05:25:44.279Z,16.36
2016-10-15T05:26:43.983Z,16.39
2016-10-15T05:27:44.636Z,16.42
2016-10-15T05:28:44.344Z,16.41
2016-10-15T05:29:44.368Z,16.38
2016-10-15T05:30:44.389Z,16.38
2016-10-15T05:31:44.720Z,16.32
2016-10-15T05:32:44.133Z,16.41
2016-10-15T05:33:44.448Z,16.38
2016-10-15T05:34:44.472Z,16.32
2016-10-15T05:35:44.494Z,16.39
2016-10-15T05:36:44.517Z,16.29
2016-10-15T05:37:44.854Z,16.31
2016-10-15T05:38:44.877Z,16.32
2016-10-15T05:39:44.582Z,16.35
2016-10-15T05:40:44.598Z,16.36
2016-10-15T05:41:44.638Z,16.36
2016-10-15T05:42:44.645Z,16.32
2016-10-15T05:43:44.349Z,16.41
2016-10-15T05:44:44.711Z,16.32
2016-10-15T05:45:44.718Z,16.43
2016-10-15T05:46:44.735Z,16.41
2016-10-15T05:47:44.752Z,16.38
2016-10-15T05:48:44.788Z,16.41
2016-10-15T05:49:44.796Z,16.47
2016-10-15T05:50:44.826Z,16.38
2016-10-15T05:51:44.524Z,16.43
2016-10-15T05:52:44.551Z,16.42
2016-10-15T05:53:45.201Z,16.38
2016-10-15T05:54:44.903Z,16.38
2016-10-15T05:55:45.247Z,16.39
2016-10-15T05:56:44.952Z,16.42
2016-10-15T05:57:44.653Z,16.41
2016-10-15T05:58:44.988Z,16.33
2016-10-15T05:59:45.010Z,16.29
2016-10-15T06:00:45.367Z,16.26
2016-10-15T06:01:44.738Z,16.26
2016-10-15T06:02:45.390Z,16.21
2016-10-15T06:03:45.098Z,16.28
2016-10-15T06:04:44.806Z,16.33
2016-10-15T06:05:45.147Z,16.32
2016-10-15T06:06:45.476Z,16.49
2016-10-15T06:07:45.200Z,16.41
2016-10-15T06:08:44.899Z,16.36
2016-10-15T06:09:44.915Z,16.41
2016-10-15T06:10:45.255Z,16.43
2016-10-15T06:11:44.975Z,16.38
2016-10-15T06:12:44.981Z,16.38
2016-10-15T06:13:44.995Z,16.46
2016-10-15T06:14:45.022Z,16.49
2016-10-15T06:15:45.059Z,16.56
2016-10-15T06:16:45.062Z,16.53
2016-10-15T06:17:45.399Z,16.57
2016-10-15T06:18:45.104Z,16.57
2016-10-15T06:19:45.756Z,16.56
2016-10-15T06:20:45.781Z,16.54
2016-10-15T06:21:45.478Z,16.53
2016-10-15T06:22:45.830Z,16.53
2016-10-15T06:23:45.840Z,16.64
2016-10-15T06:24:45.547Z,16.65
2016-10-15T06:25:45.568Z,16.66
2016-10-15T06:26:45.612Z,16.54
2016-10-15T06:27:45.634Z,16.68
2016-10-15T06:28:45.319Z,16.58
2016-10-15T06:29:45.361Z,16.71
2016-10-15T06:30:45.373Z,16.64
2016-10-15T06:31:45.702Z,16.68
2016-10-15T06:32:45.724Z,16.68
2016-10-15T06:33:45.749Z,16.69
2016-10-15T06:34:45.761Z,16.65
2016-10-15T06:35:45.790Z,16.66
2016-10-15T06:36:45.806Z,16.6
2016-10-15T06:37:45.829Z,16.66
2016-10-15T06:38:46.184Z,16.64
2016-10-15T06:39:46.186Z,16.75
2016-10-15T06:40:45.582Z,16.74
2016-10-15T06:41:46.242Z,16.76
2016-10-15T06:42:45.940Z,16.89
2016-10-15T06:43:46.280Z,16.75
2016-10-15T06:44:45.668Z,16.87
2016-10-15T06:45:46.317Z,16.86
2016-10-15T06:46:46.035Z,16.86
2016-10-15T06:47:46.360Z,16.87
2016-10-15T06:48:46.075Z,16.89
2016-10-15T06:49:46.405Z,16.87
2016-10-15T06:50:46.131Z,16.87
2016-10-15T06:51:45.820Z,16.96
2016-10-15T06:52:46.158Z,16.89
2016-10-15T06:53:46.186Z,17.04
2016-10-15T06:54:45.886Z,16.97
2016-10-15T06:55:46.231Z,17.05
2016-10-15T06:56:46.252Z,17.15
2016-10-15T06:57:46.594Z,17.04
2016-10-15T06:58:46.288Z,17.2
2016-10-15T06:59:46.320Z,17.14
2016-10-15T07:00:46.334Z,17.23
2016-10-15T07:01:46.040Z,17.24
2016-10-15T07:02:46.376Z,17.33
2016-10-15T07:03:46.399Z,17.3
2016-10-15T07:04:46.417Z,17.3
2016-10-15T07:05:46.756Z,17.34
2016-10-15T07:06:46.465Z,17.36
2016-10-15T07:07:46.809Z,17.51
2016-10-15T07:08:46.506Z,17.48
2016-10-15T07:09:46.530Z,17.54
2016-10-15T07:10:46.570Z,17.63
2016-10-15T07:11:46.889Z,17.71
2016-10-15T07:12:46.621Z,17.71
2016-10-15T07:13:46.932Z,17.79
2016-10-15T07:14:46.644Z,17.7
2016-10-15T07:15:46.354Z,17.72
2016-10-15T07:16:46.688Z,17.82
2016-10-15T07:17:46.713Z,17.85
2016-10-15T07:18:46.414Z,17.92
2016-10-15T07:19:46.758Z,18.03
2016-10-15T07:20:46.460Z,18.08
2016-10-15T07:21:47.116Z,18.15
2016-10-15T07:22:46.506Z,18.23
2016-10-15T07:23:47.163Z,18.38
2016-10-15T07:24:46.867Z,18.52
2016-10-15T07:25:46.596Z,18.75
2016-10-15T07:26:46.914Z,18.93
2016-10-15T07:27:47.130Z,19.02
2016-10-15T07:28:46.642Z,19.18
2016-10-15T07:29:47.002Z,19.49
2016-10-15T07:30:47.331Z,19.96
2016-10-15T07:31:46.722Z,20.43
2016-10-15T07:32:46.741Z,20.75
2016-10-15T07:33:46.767Z,20.92
2016-10-15T07:34:47.113Z,20.82
2016-10-15T07:35:47.127Z,20.92
2016-10-15T07:36:47.470Z,21
2016-10-15T07:37:47.495Z,21
2016-10-15T07:38:47.198Z,21.14
2016-10-15T07:39:47.542Z,21.3
2016-10-15T07:40:47.281Z,21.45
2016-10-15T07:41:47.598Z,21.5
2016-10-15T07:42:46.993Z,21.61
2016-10-15T07:43:47.337Z,21.62
2016-10-15T07:44:47.357Z,21.66
2016-10-15T07:45:47.698Z,21.72
2016-10-15T07:46:47.421Z,21.79
2016-10-15T07:47:47.755Z,21.73
2016-10-15T07:48:47.457Z,21.88
2016-10-15T07:49:47.185Z,21.95
2016-10-15T07:50:47.509Z,22.08
2016-10-15T07:51:47.540Z,22.2
2016-10-15T07:52:47.570Z,22.28
2016-10-15T07:53:47.274Z,22.48
2016-10-15T07:54:47.613Z,22.75
2016-10-15T07:55:47.960Z,23.03
2016-10-15T07:56:47.677Z,23.32
2016-10-15T07:57:47.693Z,23.36
2016-10-15T07:58:48.034Z,23.44
2016-10-15T07:59:47.747Z,23.43
2016-10-15T08:00:47.459Z,23.59
2016-10-15T08:01:47.808Z,23.73
2016-10-15T08:02:48.142Z,23.73
2016-10-15T08:03:47.853Z,23.76
2016-10-15T08:04:47.879Z,23.84
2016-10-15T08:05:47.907Z,23.84
2016-10-15T08:06:48.250Z,23.76
2016-10-15T08:07:48.302Z,23.5
2016-10-15T08:08:47.993Z,23.56
2016-10-15T08:09:48.019Z,23.55
2016-10-15T08:10:48.360Z,23.61
2016-10-15T08:11:47.766Z,23.66
2016-10-15T08:12:47.787Z,23.74
2016-10-15T08:13:48.136Z,23.88
2016-10-15T08:14:48.473Z,23.96
2016-10-15T08:15:48.182Z,24.05
2016-10-15T08:16:48.212Z,24.08
2016-10-15T08:17:48.241Z,24.24
2016-10-15T08:18:48.585Z,24.29
2016-10-15T08:19:47.979Z,24.48
2016-10-15T08:20:48.324Z,24.55
2016-10-15T08:21:48.360Z,24.61
2016-10-15T08:22:48.380Z,24.57
2016-10-15T08:23:48.735Z,24.66
2016-10-15T08:24:48.120Z,24.8
2016-10-15T08:25:48.465Z,24.68
2016-10-15T08:26:48.492Z,24.65
2016-10-15T08:27:48.205Z,24.81
2016-10-15T08:28:48.545Z,24.89
2016-10-15T08:29:48.578Z,25.07
2016-10-15T08:30:48.601Z,25.38
2016-10-15T08:31:48.316Z,25.46
2016-10-15T08:32:48.661Z,25.65
2016-10-15T08:33:48.369Z,25.81
2016-10-15T08:34:48.397Z,25.83
2016-10-15T08:35:49.060Z,25.68
2016-10-15T08:36:48.477Z,25.7
2016-10-15T08:37:49.111Z,25.65
2016-10-15T08:38:48.510Z,25.47
2016-10-15T08:39:48.537Z,25.18
2016-10-15T08:40:48.886Z,24.99
2016-10-15T08:41:48.914Z,24.88
2016-10-15T08:42:48.945Z,24.7
2016-10-15T08:43:48.733Z,24.63
2016-10-15T08:44:49.006Z,24.58
2016-10-15T08:45:49.026Z,24.53
2016-10-15T08:46:48.734Z,24.48
2016-10-15T08:47:49.083Z,24.5
2016-10-15T08:48:48.802Z,24.53
2016-10-15T08:49:49.166Z,24.53
2016-10-15T08:50:49.478Z,24.57
2016-10-15T08:51:48.882Z,24.76
2016-10-15T08:52:48.907Z,24.6
2016-10-15T08:53:49.250Z,24.68
2016-10-15T08:54:48.985Z,24.69
2016-10-15T08:55:48.989Z,24.69
2016-10-15T08:56:49.020Z,24.73
2016-10-15T08:57:49.684Z,24.63
2016-10-15T08:58:49.393Z,24.51
2016-10-15T08:59:49.747Z,24.29
2016-10-15T09:00:49.452Z,24.23
2016-10-15T09:01:49.274Z,24.02
2016-10-15T09:02:49.202Z,23.99
2016-10-15T09:03:49.535Z,23.88
2016-10-15T09:04:49.558Z,23.98
2016-10-15T09:05:49.600Z,23.95
2016-10-15T09:06:49.612Z,24.02
2016-10-15T09:07:49.964Z,24.01
2016-10-15T09:08:49.669Z,24.02
2016-10-15T09:09:49.695Z,23.95
2016-10-15T09:10:49.721Z,23.86
2016-10-15T09:11:49.435Z,23.87
2016-10-15T09:12:49.779Z,23.95
2016-10-15T09:13:50.119Z,24.05
2016-10-15T09:14:49.834Z,24.18
2016-10-15T09:15:49.543Z,24.1
2016-10-15T09:16:49.888Z,24.06
2016-10-15T09:17:49.918Z,23.95
2016-10-15T09:18:49.942Z,23.92
2016-10-15T09:19:49.656Z,23.83
2016-10-15T09:20:50.037Z,23.93
2016-10-15T09:21:50.092Z,24.08
2016-10-15T09:22:50.051Z,24.14
2016-10-15T09:23:50.081Z,24.26
2016-10-15T09:24:50.109Z,24.29
2016-10-15T09:25:50.134Z,24.3
2016-10-15T09:26:49.851Z,24.33
2016-10-15T09:27:50.502Z,24.26
2016-10-15T09:28:49.904Z,24.18
2016-10-15T09:29:49.928Z,24.35
2016-10-15T09:30:50.592Z,24.33
2016-10-15T09:31:49.986Z,24.28
2016-10-15T09:32:50.325Z,24.32
2016-10-15T09:33:50.060Z,24.16
2016-10-15T09:34:50.067Z,24.11
2016-10-15T09:35:50.410Z,24.08
2016-10-15T09:36:50.455Z,24.08
2016-10-15T09:37:50.466Z,24.16
2016-10-15T09:38:50.488Z,24.28
2016-10-15T09:39:50.518Z,24.45
2016-10-15T09:40:50.544Z,24.48
2016-10-15T09:41:50.888Z,24.48
2016-10-15T09:42:50.601Z,24.54
2016-10-15T09:43:50.312Z,24.4
2016-10-15T09:44:50.655Z,24.32
2016-10-15T09:45:50.684Z,24.28
2016-10-15T09:46:50.722Z,24.18
2016-10-15T09:47:50.739Z,24.18
2016-10-15T09:48:50.769Z,24.16
2016-10-15T09:49:50.797Z,24.32
2016-10-15T09:50:50.501Z,24.29
2016-10-15T09:51:51.164Z,24.08
2016-10-15T09:52:50.875Z,24.06
2016-10-15T09:53:50.913Z,24.17
2016-10-15T09:54:50.932Z,24.42
2016-10-15T09:55:50.957Z,24.26
2016-10-15T09:56:50.668Z,24.33
2016-10-15T09:57:50.710Z,24.33
2016-10-15T09:58:51.040Z,24.4
2016-10-15T09:59:51.065Z,24.38
2016-10-15T10:00:51.431Z,24.3
2016-10-15T10:01:51.122Z,24.26
2016-10-15T10:02:51.466Z,24.16
2016-10-15T10:03:51.176Z,24.17
2016-10-15T10:04:51.218Z,24.18
2016-10-15T10:05:50.924Z,24.02
2016-10-15T10:06:50.948Z,23.98
2016-10-15T10:07:51.304Z,23.91
2016-10-15T10:08:51.314Z,23.92
2016-10-15T10:09:51.352Z,23.96
2016-10-15T10:10:51.370Z,23.95
2016-10-15T10:11:51.739Z,23.95
2016-10-15T10:12:51.430Z,24.03
2016-10-15T10:13:51.141Z,24.13
2016-10-15T10:14:51.479Z,24.14
2016-10-15T10:15:51.507Z,24.18
2016-10-15T10:16:52.190Z,24.28
2016-10-15T10:17:51.563Z,24.42
2016-10-15T10:18:51.591Z,24.5
2016-10-15T10:19:51.302Z,24.5
2016-10-15T10:20:51.366Z,24.48
2016-10-15T10:21:51.989Z,24.54
2016-10-15T10:22:51.696Z,24.63
2016-10-15T10:23:51.729Z,24.7
2016-10-15T10:24:51.440Z,24.84
2016-10-15T10:25:51.465Z,24.81
2016-10-15T10:26:51.495Z,24.92
2016-10-15T10:27:52.157Z,24.92
2016-10-15T10:28:51.567Z,24.99
2016-10-15T10:29:51.911Z,24.99
2016-10-15T10:30:51.606Z,25.06
2016-10-15T10:31:51.947Z,25.1
2016-10-15T10:32:51.979Z,24.92
2016-10-15T10:33:52.003Z,24.92
2016-10-15T10:34:51.717Z,24.91
2016-10-15T10:35:52.072Z,24.66
2016-10-15T10:36:52.437Z,24.51
2016-10-15T10:37:51.807Z,24.61
2016-10-15T10:38:51.824Z,24.63
2016-10-15T10:39:52.185Z,24.66
2016-10-15T10:40:52.195Z,24.65
2016-10-15T10:41:52.541Z,24.69
2016-10-15T10:42:51.939Z,24.86
2016-10-15T10:43:51.970Z,24.92
2016-10-15T10:44:52.313Z,24.91
2016-10-15T10:45:52.333Z,24.89
2016-10-15T10:46:52.049Z,24.95
2016-10-15T10:47:52.711Z,24.86
2016-10-15T10:48:52.734Z,24.92
2016-10-15T10:49:52.128Z,24.99
2016-10-15T10:50:52.789Z,24.96
2016-10-15T10:51:52.500Z,24.81
2016-10-15T10:52:52.843Z,24.78
2016-10-15T10:53:52.560Z,24.84
2016-10-15T10:54:52.901Z,24.91
2016-10-15T10:55:52.622Z,24.86
2016-10-15T10:56:52.324Z,24.8
2016-10-15T10:57:52.690Z,24.81
2016-10-15T10:58:52.379Z,24.91
2016-10-15T10:59:53.033Z,24.99
2016-10-15T11:00:52.436Z,24.89
2016-10-15T11:01:52.480Z,24.93
2016-10-15T11:02:52.809Z,24.92
2016-10-15T11:03:53.145Z,24.84
2016-10-15T11:04:52.554Z,24.88
2016-10-15T11:05:53.207Z,24.96
2016-10-15T11:06:52.918Z,25.01
2016-10-15T11:07:52.627Z,25.03
2016-10-15T11:08:52.660Z,25.01
2016-10-15T11:09:52.685Z,25.11
2016-10-15T11:10:53.028Z,24.99
2016-10-15T11:11:53.052Z,25.11
2016-10-15T11:12:53.083Z,25.1
2016-10-15T11:13:53.120Z,25.07
2016-10-15T11:14:53.454Z,24.93
2016-10-15T11:15:52.846Z,24.99
2016-10-15T11:16:52.883Z,24.99
2016-10-15T11:17:52.906Z,25.11
2016-10-15T11:18:52.933Z,25.03
2016-10-15T11:19:53.276Z,24.89
2016-10-15T11:20:52.992Z,25.08
2016-10-15T11:21:53.647Z,24.99
2016-10-15T11:22:53.359Z,25.07
2016-10-15T11:23:53.074Z,25.07
2016-10-15T11:24:53.414Z,25.08
2016-10-15T11:25:53.130Z,24.95
2016-10-15T11:26:53.497Z,24.66
2016-10-15T11:27:53.812Z,24.63
2016-10-15T11:28:53.525Z,24.54
2016-10-15T11:29:53.236Z,24.4
2016-10-15T11:30:53.587Z,24.48
2016-10-15T11:31:53.290Z,24.5
2016-10-15T11:32:53.637Z,24.61
2016-10-15T11:33:53.349Z,24.48
2016-10-15T11:34:53.694Z,24.45
2016-10-15T11:35:53.716Z,24.3
2016-10-15T11:36:53.761Z,24.26
2016-10-15T11:37:53.773Z,24.23
2016-10-15T11:38:54.117Z,24.33
2016-10-15T11:39:53.520Z,24.5
2016-10-15T11:40:53.859Z,24.63
2016-10-15T11:41:53.568Z,24.89
2016-10-15T11:42:53.924Z,24.77
2016-10-15T11:43:53.937Z,24.91
2016-10-15T11:44:53.977Z,24.66
2016-10-15T11:45:53.676Z,24.81
2016-10-15T11:46:53.707Z,24.7
2016-10-15T11:47:53.741Z,24.54
2016-10-15T11:48:53.763Z,24.53
2016-10-15T11:49:54.420Z,24.51
2016-10-15T11:50:53.827Z,24.53
2016-10-15T11:51:54.157Z,24.68
2016-10-15T11:52:54.199Z,24.66
2016-10-15T11:53:54.214Z,24.69
2016-10-15T11:54:54.249Z,24.76
2016-10-15T11:55:54.584Z,24.84
2016-10-15T11:56:54.610Z,24.84
2016-10-15T11:57:54.639Z,24.92
2016-10-15T11:58:54.064Z,24.93
2016-10-15T11:59:54.072Z,24.98
2016-10-15T12:00:54.747Z,24.93
2016-10-15T12:01:54.439Z,24.78
2016-10-15T12:02:54.513Z,24.85
2016-10-15T12:03:54.493Z,24.74
2016-10-15T12:04:54.519Z,24.7
2016-10-15T12:05:54.587Z,24.53
2016-10-15T12:06:54.259Z,24.53
2016-10-15T12:07:54.603Z,24.57
2016-10-15T12:08:54.945Z,24.53
2016-10-15T12:09:54.341Z,24.45
2016-10-15T12:10:54.702Z,24.4
2016-10-15T12:11:54.718Z,24.35
2016-10-15T12:12:55.054Z,24.16
2016-10-15T12:13:54.469Z,23.91
2016-10-15T12:14:54.482Z,23.83
2016-10-15T12:15:54.828Z,23.8
2016-10-15T12:16:54.844Z,23.74
2016-10-15T12:17:54.562Z,23.55
2016-10-15T12:18:54.898Z,23.65
2016-10-15T12:19:54.616Z,23.56
2016-10-15T12:20:54.955Z,23.61
2016-10-15T12:21:55.376Z,23.63
2016-10-15T12:22:55.017Z,23.54
2016-10-15T12:23:55.388Z,23.5
2016-10-15T12:24:55.063Z,23.61
2016-10-15T12:25:55.094Z,23.48
2016-10-15T12:26:55.118Z,23.41
2016-10-15T12:27:55.472Z,23.37
2016-10-15T12:28:55.171Z,23.37
2016-10-15T12:29:54.923Z,23.31
2016-10-15T12:30:55.224Z,23.24
2016-10-15T12:31:55.258Z,23.13
2016-10-15T12:32:55.282Z,23.12
2016-10-15T12:33:55.624Z,23.09
2016-10-15T12:34:55.332Z,23.05
2016-10-15T12:35:55.358Z,22.98
2016-10-15T12:36:55.388Z,22.81
2016-10-15T12:37:55.117Z,22.72
2016-10-15T12:38:55.448Z,22.63
2016-10-15T12:39:55.466Z,22.66
2016-10-15T12:40:55.495Z,22.63
2016-10-15T12:41:55.522Z,22.69
2016-10-15T12:42:55.860Z,22.57
2016-10-15T12:43:55.269Z,22.59
2016-10-15T12:44:55.283Z,22.53
2016-10-15T12:45:55.624Z,22.5
2016-10-15T12:46:55.965Z,22.41
2016-10-15T12:47:55.361Z,22.41
2016-10-15T12:48:55.393Z,22.45
2016-10-15T12:49:55.735Z,22.36
2016-10-15T12:50:55.441Z,22.2
2016-10-15T12:51:55.467Z,22.13
2016-10-15T12:52:55.495Z,22.07
2016-10-15T12:53:55.834Z,22.02
2016-10-15T12:54:55.563Z,21.93
2016-10-15T12:55:56.202Z,21.82